Time;durP1;ratioP1;P1;durP2;ratioP2;P2;SDS_P1;SDS_P2;PMS_P1;PMS_P2;Temp;Humidity;BMP_temperature;BMP_pressure;BME280_temperature;BME280_humidity;BME280_pressure;Samples;Min_cycle;Max_cycle;Signal;HPM_P1;HPM_P2
2022/12/21 07:43:38;;;;;;;71.30;41.33;;;;;;;0.66;82.31;98186.72;1888304;75;28070;-55
2022/12/21 07:46:09;;;;;;;75.12;36.45;;;;;;;0.63;81.73;98177.95;1844186;77;20970;-60
2022/12/21 07:51:10;;;;;;;42.08;27.22;;;;;;;0.88;80.08;98182.59;1837772;76;28082;-61
2022/12/21 07:53:37;;;;;;;57.13;34.83;;;;;;;0.93;77.67;98178.77;1794676;79;20852;-62
2022/12/21 07:56:14;;;;;;;54.03;33.88;;;;;;;1.05;76.44;98178.30;1821199;78;21860;-59
2022/12/21 07:58:41;;;;;;;72.58;41.23;;;;;;;1.14;76.33;98165.07;1805302;78;20967;-62
2022/12/21 08:01:12;;;;;;;93.20;50.23;;;;;;;1.22;75.90;98170.03;1785142;79;21447;-60
2022/12/21 08:03:39;;;;;;;456.00;244.15;;;;;;;1.26;75.64;98163.27;1794642;79;20912;-63
2022/12/21 08:06:06;;;;;;;132.37;68.22;;;;;;;1.31;75.71;98165.22;1815657;79;20884;-59
2022/12/21 08:08:37;;;;;;;76.30;44.08;;;;;;;1.35;75.45;98170.33;1815374;79;21498;-60
2022/12/21 08:11:05;;;;;;;74.82;43.25;;;;;;;1.36;74.62;98175.40;1815451;78;20948;-63
2022/12/21 08:13:31;;;;;;;66.57;41.88;;;;;;;1.39;73.39;98170.16;1799469;79;21086;-57
2022/12/21 08:16:04;;;;;;;80.03;53.00;;;;;;;1.45;73.41;98188.25;1801121;79;20927;-62
2022/12/21 08:18:32;;;;;;;62.13;38.40;;;;;;;1.48;73.35;98175.92;1802591;79;21537;-61
2022/12/21 08:20:58;;;;;;;65.65;39.05;;;;;;;1.50;72.96;98183.09;1815599;79;21115;-62
2022/12/21 08:23:25;;;;;;;59.48;35.88;;;;;;;1.51;73.18;98186.04;1803506;77;20873;-57
2022/12/21 08:25:52;;;;;;;53.28;35.03;;;;;;;1.54;72.81;98180.28;1807345;77;20967;-61
2022/12/21 08:28:19;;;;;;;55.55;34.43;;;;;;;1.58;72.71;98181.45;1810247;78;20907;-58
2022/12/21 08:30:46;;;;;;;47.17;30.62;;;;;;;1.61;72.45;98190.22;1799718;79;20979;-57
2022/12/21 08:33:13;;;;;;;41.70;27.70;;;;;;;1.65;72.40;98196.67;1740428;80;21251;-56
2022/12/21 08:35:43;;;;;;;45.78;28.83;;;;;;;1.71;72.00;98196.56;1756441;81;20992;-63
2022/12/21 08:38:09;;;;;;;43.28;29.48;;;;;;;1.80;71.84;98186.45;1759486;80;20896;-57
2022/12/21 08:40:36;;;;;;;42.13;29.23;;;;;;;1.89;72.14;98192.48;1732861;82;21011;-60
2022/12/21 08:43:02;;;;;;;44.65;28.65;;;;;;;1.96;72.19;98192.36;1731727;82;21015;-58
2022/12/21 08:45:29;;;;;;;43.80;28.32;;;;;;;2.02;72.38;98184.34;1739185;82;22017;-57
2022/12/21 08:47:55;;;;;;;43.35;29.25;;;;;;;2.11;72.36;98191.39;1761714;80;21034;-59
2022/12/21 08:50:23;;;;;;;44.98;29.40;;;;;;;2.19;71.75;98186.27;1742133;81;20984;-62
2022/12/21 08:52:49;;;;;;;43.75;30.20;;;;;;;2.27;71.62;98189.36;1791808;79;20988;-59
2022/12/21 08:55:16;;;;;;;45.83;33.13;;;;;;;2.33;72.06;98187.09;1796037;79;20943;-58
2022/12/21 08:57:43;;;;;;;49.55;33.25;;;;;;;2.35;71.80;98187.69;1785015;77;21243;-63
2022/12/21 09:00:13;;;;;;;45.67;31.70;;;;;;;2.37;71.68;98176.36;1786657;79;21392;-63
2022/12/21 09:02:40;;;;;;;45.60;31.25;;;;;;;2.43;71.16;98171.45;1772285;81;20928;-57
2022/12/21 09:05:06;;;;;;;45.88;32.50;;;;;;;2.51;71.16;98168.45;1772074;81;20901;-57
2022/12/21 09:07:34;;;;;;;48.87;33.75;;;;;;;2.56;70.69;98165.91;1771932;81;20987;-57
2022/12/21 09:10:02;;;;;;;45.67;33.00;;;;;;;2.62;70.70;98170.25;1780704;79;21249;-62
2022/12/21 09:12:29;;;;;;;48.95;33.67;;;;;;;2.67;70.76;98169.03;1785868;77;21380;-61
2022/12/21 09:14:56;;;;;;;43.45;31.30;;;;;;;2.73;70.39;98160.14;1797775;79;20929;-59
2022/12/21 09:17:23;;;;;;;46.05;32.75;;;;;;;2.81;70.47;98155.00;1781519;79;20936;-59
2022/12/21 09:19:49;;;;;;;50.00;34.38;;;;;;;2.87;70.01;98158.55;1791216;79;20916;-56
2022/12/21 09:22:16;;;;;;;47.30;33.10;;;;;;;2.90;69.60;98151.47;1794218;79;21067;-57
2022/12/21 09:24:44;;;;;;;48.00;32.20;;;;;;;2.92;69.52;98149.39;1795308;79;21415;-58
2022/12/21 09:27:11;;;;;;;46.28;31.65;;;;;;;2.93;69.78;98147.01;1785950;79;21459;-57
2022/12/21 09:29:38;;;;;;;54.45;34.10;;;;;;;2.95;69.43;98146.25;1780826;77;20912;-58
2022/12/21 09:32:04;;;;;;;47.53;32.73;;;;;;;2.96;69.91;98148.67;1782415;79;20971;-58
2022/12/21 09:34:31;;;;;;;55.95;36.77;;;;;;;2.97;69.17;98144.97;1801960;79;21137;-60
2022/12/21 09:36:59;;;;;;;55.88;37.42;;;;;;;2.99;69.44;98146.08;1803501;79;20873;-59
2022/12/21 09:39:25;;;;;;;76.85;43.50;;;;;;;2.99;69.27;98138.91;1803823;79;20919;-58
2022/12/21 09:42:03;;;;;;;128.25;59.75;;;;;;;3.01;69.46;98147.45;1804168;79;20990;-58
2022/12/21 09:44:39;;;;;;;86.53;47.40;;;;;;;3.04;69.82;98147.49;1804228;79;21113;-59
